Time;durP1;ratioP1;P1;durP2;ratioP2;P2;SDS_P1;SDS_P2;PMS_P1;PMS_P2;Temp;Humidity;BMP_temperature;BMP_pressure;BME280_temperature;BME280_humidity;BME280_pressure;Samples;Min_cycle;Max_cycle;Signal;HPM_P1;HPM_P2
2023/02/23 00:01:18;;;;;;;46.45;43.08;;;;;;;7.96;82.71;97860.06;5037230;28;20024;-75
2023/02/23 00:03:44;;;;;;;49.55;46.15;;;;;;;8.00;82.92;97855.91;5052626;28;20037;-75
2023/02/23 00:06:10;;;;;;;47.92;44.72;;;;;;;7.89;82.99;97858.59;5050419;28;20102;-75
2023/02/23 00:08:36;;;;;;;47.50;44.38;;;;;;;7.92;83.40;97858.09;5056203;28;20047;-76
2023/02/23 00:11:04;;;;;;;47.67;44.40;;;;;;;7.75;82.76;97847.28;5071987;28;20720;-75
2023/02/23 00:13:30;;;;;;;47.55;44.55;;;;;;;7.88;82.35;97846.22;5070490;28;20044;-74
2023/02/23 00:15:56;;;;;;;43.17;40.58;;;;;;;8.00;81.98;97850.53;5091792;28;20098;-76
2023/02/23 00:18:21;;;;;;;48.13;44.78;;;;;;;8.01;82.21;97849.47;5040182;28;20503;-76
2023/02/23 00:20:56;;;;;;;45.92;42.85;;;;;;;7.95;82.85;97849.59;5053450;28;20028;-75
2023/02/23 00:23:22;;;;;;;45.83;42.70;;;;;;;7.68;83.60;97847.41;5053310;28;20514;-75
2023/02/23 00:25:47;;;;;;;48.47;45.17;;;;;;;7.84;83.66;97843.19;5071372;28;20111;-75
2023/02/23 00:28:13;;;;;;;49.08;45.47;;;;;;;7.75;84.34;97847.28;5069947;28;20035;-75
2023/02/23 00:30:38;;;;;;;48.42;45.22;;;;;;;7.78;82.98;97840.63;5053385;28;20365;-77
2023/02/23 00:33:04;;;;;;;47.80;44.58;;;;;;;7.65;83.79;97831.00;5053000;28;20103;-76
2023/02/23 00:35:29;;;;;;;47.38;44.22;;;;;;;7.85;83.42;97847.50;5049520;28;20029;-76
2023/02/23 00:37:54;;;;;;;49.75;46.42;;;;;;;7.81;82.81;97841.00;5071109;28;20114;-74
2023/02/23 00:40:21;;;;;;;47.35;43.88;;;;;;;7.70;84.05;97839.16;5046095;28;20553;-75
2023/02/23 00:42:48;;;;;;;45.60;42.47;;;;;;;7.61;83.28;97843.22;5079254;28;20029;-74
2023/02/23 00:45:14;;;;;;;47.30;44.20;;;;;;;7.45;84.57;97846.59;5040817;28;20025;-75
2023/02/23 00:47:41;;;;;;;47.90;44.78;;;;;;;7.51;84.22;97854.50;5034058;28;20111;-75
2023/02/23 00:50:11;;;;;;;48.05;44.78;;;;;;;7.41;85.34;97856.97;5033304;28;20124;-76
2023/02/23 00:52:37;;;;;;;47.95;44.65;;;;;;;7.34;84.70;97852.78;5051495;28;20070;-75
2023/02/23 00:55:04;;;;;;;48.25;44.60;;;;;;;7.32;85.13;97852.19;5069738;28;20031;-75
2023/02/23 00:57:29;;;;;;;49.08;45.63;;;;;;;7.32;85.54;97852.19;5070968;28;20029;-74
2023/02/23 00:59:55;;;;;;;48.35;45.05;;;;;;;7.13;85.58;97850.66;5069775;28;20384;-75
2023/02/23 01:02:20;;;;;;;47.25;43.95;;;;;;;7.36;84.26;97853.34;5048200;28;20036;-74
2023/02/23 01:04:48;;;;;;;48.88;45.53;;;;;;;7.48;84.10;97854.19;5044848;28;20476;-74
2023/02/23 01:07:13;;;;;;;49.33;45.88;;;;;;;7.45;84.69;97858.13;5069563;28;20043;-75
2023/02/23 01:09:38;;;;;;;48.35;44.83;;;;;;;7.33;84.26;97856.50;5049762;28;20071;-75
2023/02/23 01:12:06;;;;;;;47.75;44.38;;;;;;;7.35;84.72;97851.75;5031595;28;20032;-75
2023/02/23 01:14:32;;;;;;;47.78;44.42;;;;;;;7.43;84.71;97865.59;5052775;28;20668;-75
2023/02/23 01:16:58;;;;;;;49.97;46.67;;;;;;;7.58;84.37;97851.75;5052794;28;20032;-75
2023/02/23 01:19:24;;;;;;;50.22;47.03;;;;;;;7.53;84.46;97846.25;5049577;28;20048;-76
2023/02/23 01:21:49;;;;;;;48.47;45.35;;;;;;;7.66;83.35;97848.69;5047796;28;20037;-76
2023/02/23 01:24:16;;;;;;;46.53;43.20;;;;;;;7.69;83.58;97842.88;5061259;28;20475;-76
2023/02/23 01:26:43;;;;;;;46.53;43.33;;;;;;;7.72;84.37;97846.94;5052852;28;20157;-76
2023/02/23 01:29:11;;;;;;;47.65;44.38;;;;;;;7.67;84.32;97853.03;5049430;28;20499;-76
2023/02/23 01:31:38;;;;;;;46.88;43.55;;;;;;;7.77;83.50;97845.19;5048309;28;20033;-76
2023/02/23 01:34:04;;;;;;;47.60;44.33;;;;;;;7.53;84.68;97843.59;5045014;28;20024;-76
2023/02/23 01:36:34;;;;;;;49.38;46.13;;;;;;;7.52;84.86;97848.13;5052684;28;20031;-76
2023/02/23 01:39:00;;;;;;;49.10;45.60;;;;;;;7.45;84.95;97844.75;5049443;28;20033;-76
2023/02/23 01:41:27;;;;;;;49.80;46.33;;;;;;;7.64;84.45;97848.94;5033104;28;20087;-77
2023/02/23 01:44:05;;;;;;;48.40;45.20;;;;;;;7.71;84.26;97848.00;5042137;28;20020;-76
2023/02/23 01:46:41;;;;;;;49.47;46.20;;;;;;;7.67;83.55;97844.97;5055618;28;20064;-76
2023/02/23 01:49:10;;;;;;;48.65;45.38;;;;;;;7.61;84.77;97851.25;5055833;28;20063;-75
2023/02/23 01:51:41;;;;;;;47.33;44.03;;;;;;;7.58;84.45;97846.38;5052946;28;20025;-76
2023/02/23 01:54:14;;;;;;;48.03;44.63;;;;;;;7.74;83.93;97847.53;5059933;28;20498;-76
2023/02/23 01:56:43;;;;;;;49.30;45.78;;;;;;;7.69;83.87;97842.88;5048546;28;20038;-75
2023/02/23 01:59:11;;;;;;;48.47;45.25;;;;;;;7.64;84.93;97850.78;5056104;28;20032;-75
2023/02/23 02:01:39;;;;;;;49.58;46.13;;;;;;;7.52;85.21;97852.66;5052981;28;20127;-75
2023/02/23 02:04:05;;;;;;;51.55;47.88;;;;;;;7.68;85.07;97851.94;5052676;28;20021;-76
2023/02/23 02:06:34;;;;;;;50.40;46.72;;;;;;;7.68;84.64;97846.59;5060206;28;20032;-75
2023/02/23 02:09:09;;;;;;;51.70;47.75;;;;;;;7.73;84.67;97848.56;5041148;28;20476;-75
2023/02/23 02:11:35;;;;;;;50.35;46.70;;;;;;;7.81;84.03;97846.38;5049361;28;20490;-75
2023/02/23 02:14:04;;;;;;;51.28;47.78;;;;;;;7.81;84.26;97845.53;5073665;28;20024;-75
2023/02/23 02:17:01;;;;;;;52.00;48.35;;;;;;;7.75;84.81;97846.50;5039256;28;20073;-75
2023/02/23 02:19:26;;;;;;;;;;;;;;;7.72;84.39;97845.09;5056985;28;20047;-75
2023/02/23 02:22:28;;;;;;;51.00;47.47;;;;;;;7.63;84.76;97849.19;5072329;28;19912;-75
2023/02/23 02:25:05;;;;;;;48.88;45.28;;;;;;;7.78;84.05;97841.47;5071957;28;20522;-75
2023/02/23 02:28:08;;;;;;;51.03;47.33;;;;;;;7.86;84.08;97846.47;5072189;28;20041;-75
2023/02/23 02:31:19;;;;;;;50.03;46.42;;;;;;;7.74;84.11;97851.03;5052437;28;20036;-74
2023/02/23 02:34:12;;;;;;;48.65;45.30;;;;;;;7.67;84.08;97853.03;4973945;28;20073;-75
2023/02/23 02:37:10;;;;;;;49.65;46.08;;;;;;;7.69;84.89;97858.94;4998026;28;20030;-75
2023/02/23 02:39:46;;;;;;;51.08;47.25;;;;;;;7.80;83.89;97850.06;5064298;28;20041;-74
2023/02/23 02:42:42;;;;;;;52.60;49.05;;;;;;;7.77;84.83;97852.44;5038860;28;20036;-75
2023/02/23 02:45:21;;;;;;;51.53;47.57;;;;;;;7.82;83.71;97847.97;5060963;28;20033;-75
2023/02/23 02:47:46;;;;;;;52.70;48.92;;;;;;;7.86;84.45;97849.16;5038319;28;20040;-75
2023/02/23 02:50:16;;;;;;;49.40;45.75;;;;;;;7.80;84.67;97846.56;5109941;22;20037;-74
2023/02/23 02:52:49;;;;;;;50.33;46.40;;;;;;;7.89;84.27;97842.50;5050245;28;20028;-74
2023/02/23 02:55:22;;;;;;;50.58;46.95;;;;;;;7.81;84.37;97841.00;5070026;28;20098;-73
2023/02/23 02:57:51;;;;;;;48.92;45.25;;;;;;;7.93;83.49;97849.03;5036865;28;20040;-73
2023/02/23 04:19:51;;;;;;;55.17;50.60;;;;;;;6.76;84.89;97858.03;5069925;28;20036;-74
2023/02/23 04:22:16;;;;;;;58.70;53.88;;;;;;;6.64;85.53;97860.66;5050561;28;20067;-73
2023/02/23 04:24:42;;;;;;;56.03;51.35;;;;;;;6.72;85.01;97852.31;5051520;28;20048;-73
2023/02/23 04:27:07;;;;;;;56.97;52.08;;;;;;;6.76;84.62;97861.53;5070008;28;20471;-74
2023/02/23 04:29:33;;;;;;;54.15;49.50;;;;;;;6.41;86.65;97855.22;5066682;28;20017;-73
2023/02/23 04:31:58;;;;;;;53.13;48.47;;;;;;;6.57;86.16;97859.13;5064104;28;20032;-74
2023/02/23 04:34:23;;;;;;;55.42;50.35;;;;;;;6.53;85.73;97866.81;5058316;28;20502;-73
2023/02/23 04:36:50;;;;;;;56.45;51.75;;;;;;;6.56;86.08;97852.94;5070907;28;20036;-72
2023/02/23 04:39:15;;;;;;;56.63;51.90;;;;;;;6.46;86.02;97860.72;5053073;28;20025;-73
2023/02/23 04:41:41;;;;;;;53.05;48.55;;;;;;;6.51;85.57;97860.84;5069985;28;20494;-73
2023/02/23 04:44:06;;;;;;;56.47;51.67;;;;;;;6.28;85.91;97859.94;5070764;28;20070;-73
2023/02/23 04:46:32;;;;;;;62.00;56.72;;;;;;;6.25;86.65;97864.66;5069851;28;20186;-73
2023/02/23 04:48:57;;;;;;;56.85;51.90;;;;;;;6.39;85.66;97862.66;5069529;28;20037;-73
2023/02/23 04:51:23;;;;;;;59.70;54.38;;;;;;;6.44;85.28;97865.47;5071038;28;20590;-73
2023/02/23 04:53:48;;;;;;;58.08;53.10;;;;;;;6.53;84.28;97864.13;5052766;28;20052;-74
2023/02/23 04:56:14;;;;;;;54.50;49.88;;;;;;;6.45;84.77;97856.41;5069841;28;20031;-73
2023/02/23 04:58:39;;;;;;;57.83;52.83;;;;;;;6.09;86.26;97872.50;5052909;28;20020;-72
2023/02/23 05:01:07;;;;;;;59.45;54.13;;;;;;;6.14;86.40;97867.28;5069718;28;20036;-73
2023/02/23 05:03:33;;;;;;;59.53;54.22;;;;;;;6.14;87.16;97868.09;5070696;28;20043;-74
2023/02/23 05:05:58;;;;;;;59.15;54.03;;;;;;;6.25;85.99;97869.22;5053002;28;20033;-74
2023/02/23 05:08:24;;;;;;;58.22;53.38;;;;;;;6.40;85.25;97856.25;5070651;28;20032;-73
2023/02/23 05:10:49;;;;;;;56.40;51.65;;;;;;;6.48;85.51;97876.53;5052816;28;20040;-74
2023/02/23 05:13:15;;;;;;;57.60;52.70;;;;;;;6.48;84.81;97876.53;5070429;28;20043;-74
2023/02/23 05:15:40;;;;;;;54.15;49.25;;;;;;;6.47;86.00;97874.88;5061830;28;20029;-74
2023/02/23 05:18:06;;;;;;;53.53;48.92;;;;;;;6.43;85.81;97874.53;5063850;28;20024;-75
2023/02/23 05:20:32;;;;;;;53.47;48.78;;;;;;;6.45;85.10;97867.09;5071072;28;20036;-74
2023/02/23 05:22:58;;;;;;;52.88;48.42;;;;;;;6.59;84.55;97865.06;5053807;28;20027;-71
2023/02/23 05:25:23;;;;;;;54.67;49.67;;;;;;;6.70;84.70;97873.13;5073273;28;20039;-74
2023/02/23 05:27:49;;;;;;;52.35;47.80;;;;;;;6.71;84.11;97874.78;5056396;28;20028;-74
2023/02/23 05:30:15;;;;;;;55.08;50.40;;;;;;;6.56;85.55;97869.00;5074399;28;20384;-72
2023/02/23 05:32:40;;;;;;;52.92;48.55;;;;;;;6.40;85.34;97885.69;5056435;28;20073;-72
2023/02/23 05:35:06;;;;;;;54.30;49.70;;;;;;;6.26;85.51;97873.50;5074275;28;20643;-73
2023/02/23 05:37:32;;;;;;;54.45;49.65;;;;;;;6.26;85.66;97868.16;5073045;28;20021;-73
2023/02/23 05:39:58;;;;;;;55.08;50.15;;;;;;;6.24;86.08;97875.59;5074250;28;20043;-74
2023/02/23 05:42:23;;;;;;;56.88;51.97;;;;;;;6.23;85.82;97879.34;5072591;28;20029;-74
2023/02/23 05:44:48;;;;;;;60.80;55.40;;;;;;;6.12;86.13;97874.72;5074224;28;20036;-71
2023/02/23 05:47:14;;;;;;;59.47;53.92;;;;;;;6.26;85.61;97868.16;5072898;28;20107;-73
2023/02/23 05:49:39;;;;;;;57.15;51.95;;;;;;;6.58;84.79;97874.94;5072828;28;20037;-74
2023/02/23 05:52:05;;;;;;;59.10;53.70;;;;;;;6.52;85.43;97877.72;5073909;28;20028;-73
2023/02/23 05:54:30;;;;;;;65.72;59.58;;;;;;;6.57;85.34;97872.50;5055872;28;20403;-74
2023/02/23 05:56:55;;;;;;;100.53;90.93;;;;;;;6.58;85.63;97874.94;5073679;28;20025;-75
2023/02/23 05:59:21;;;;;;;118.63;106.47;;;;;;;6.58;85.87;97876.81;5072686;28;20051;-74
2023/02/23 06:01:46;;;;;;;82.90;74.30;;;;;;;6.69;85.78;97874.19;5055889;28;20395;-73
2023/02/23 06:04:13;;;;;;;74.90;67.65;;;;;;;6.66;85.77;97877.31;5072392;28;20043;-74
2023/02/23 06:06:38;;;;;;;66.28;59.70;;;;;;;6.63;86.29;97880.44;5072558;28;20480;-74
2023/02/23 06:09:04;;;;;;;68.72;62.13;;;;;;;6.58;86.36;97877.59;5055814;28;20054;-75
2023/02/23 06:11:30;;;;;;;67.35;60.63;;;;;;;6.69;86.13;97884.06;5052517;28;20032;-74
2023/02/23 06:13:58;;;;;;;72.00;65.57;;;;;;;6.67;86.22;97875.47;5072136;28;20037;-74
2023/02/23 06:16:25;;;;;;;66.60;60.17;;;;;;;6.86;85.92;97883.19;5055913;28;20013;-75
2023/02/23 06:18:50;;;;;;;69.70;63.03;;;;;;;6.83;86.50;97885.50;5072139;28;20157;-77
2023/02/23 06:21:20;;;;;;;71.60;64.70;;;;;;;6.70;85.54;97883.81;5072317;28;20038;-75
2023/02/23 06:23:45;;;;;;;77.28;69.47;;;;;;;6.49;85.79;97883.53;5072646;28;20029;-75
2023/02/23 06:26:11;;;;;;;70.57;63.80;;;;;;;6.66;86.73;97890.69;5072063;28;20386;-75
2023/02/23 06:28:36;;;;;;;74.47;67.50;;;;;;;6.64;86.39;97891.94;5053530;28;20032;-75
2023/02/23 06:31:02;;;;;;;71.57;64.75;;;;;;;6.73;86.00;97896.75;5054595;28;20051;-75
2023/02/23 06:33:27;;;;;;;73.50;66.55;;;;;;;6.75;86.28;97905.38;5046230;28;20112;-74
2023/02/23 06:35:53;;;;;;;69.93;63.05;;;;;;;6.58;86.14;97909.72;5052474;28;20027;-75
2023/02/23 06:38:19;;;;;;;75.05;68.00;;;;;;;6.70;86.23;97918.63;5051909;28;20132;-75
2023/02/23 06:40:45;;;;;;;73.05;65.80;;;;;;;6.71;86.08;97916.75;5055025;28;20028;-74
2023/02/23 06:43:10;;;;;;;70.90;64.05;;;;;;;6.83;86.14;97917.63;5038186;28;20090;-74
2023/02/23 06:45:35;;;;;;;68.32;61.78;;;;;;;6.97;85.28;97913.72;5071743;28;20465;-75
2023/02/23 06:48:01;;;;;;;69.15;62.75;;;;;;;6.97;84.43;97916.41;5051924;28;20059;-75
2023/02/23 06:50:26;;;;;;;71.63;64.75;;;;;;;6.95;84.82;97924.63;5066413;28;20035;-74
2023/02/23 06:52:52;;;;;;;76.45;68.90;;;;;;;6.88;85.52;97921.25;5054932;28;20093;-75
2023/02/23 06:55:17;;;;;;;208.20;161.00;;;;;;;6.82;85.44;97921.34;5071369;28;20024;-75
2023/02/23 06:57:43;;;;;;;132.88;111.95;;;;;;;6.81;85.12;97928.53;5071725;28;20433;-74
2023/02/23 07:00:13;;;;;;;143.88;120.28;;;;;;;6.97;84.58;97929.78;5054886;28;20103;-73
2023/02/23 07:02:39;;;;;;;105.18;88.57;;;;;;;6.87;84.96;97927.66;5058356;28;20101;-75
2023/02/23 07:05:05;;;;;;;73.57;66.40;;;;;;;6.76;86.50;97928.44;5051246;28;20477;-75
2023/02/23 07:07:31;;;;;;;80.20;72.53;;;;;;;6.69;86.46;97941.09;5072525;28;20047;-74
2023/02/23 07:09:57;;;;;;;75.75;68.32;;;;;;;6.78;87.03;97946.94;5071073;28;20021;-75
2023/02/23 07:12:22;;;;;;;71.95;65.18;;;;;;;6.85;86.79;97937.78;5054661;28;20066;-75
2023/02/23 07:14:47;;;;;;;73.70;66.78;;;;;;;6.98;86.68;97948.28;5071718;28;20020;-75
2023/02/23 07:17:13;;;;;;;77.00;69.45;;;;;;;7.03;85.40;97938.75;5041998;28;20139;-75
2023/02/23 07:19:38;;;;;;;74.45;67.55;;;;;;;7.07;84.75;97939.94;5054616;28;20025;-75
2023/02/23 07:22:04;;;;;;;74.63;67.82;;;;;;;7.25;84.95;97942.53;5072141;28;20111;-75
2023/02/23 07:24:30;;;;;;;76.10;68.65;;;;;;;7.37;84.64;97948.75;5037435;28;20788;-76
2023/02/23 07:26:55;;;;;;;77.88;70.13;;;;;;;7.46;85.36;97944.69;5070859;28;20123;-74
2023/02/23 07:29:22;;;;;;;77.57;69.82;;;;;;;7.43;84.78;97939.78;5054320;28;20020;-75
2023/02/23 07:31:48;;;;;;;75.82;68.25;;;;;;;7.67;83.93;97938.78;5054398;28;20036;-75
2023/02/23 07:34:14;;;;;;;76.75;69.32;;;;;;;7.61;84.25;97945.03;5070509;28;20036;-74
2023/02/23 07:36:39;;;;;;;78.63;70.68;;;;;;;7.53;84.75;97942.72;5054292;28;20037;-75
2023/02/23 07:39:05;;;;;;;74.35;67.13;;;;;;;7.56;84.27;97950.31;5072036;28;20052;-75
2023/02/23 07:41:31;;;;;;;73.35;66.10;;;;;;;7.72;84.00;97943.44;5071886;28;20391;-75
2023/02/23 07:43:59;;;;;;;74.47;67.03;;;;;;;7.83;83.85;97946.13;5053885;28;20055;-75
2023/02/23 07:46:24;;;;;;;69.82;62.85;;;;;;;7.80;83.98;97946.56;5070651;28;20064;-75
2023/02/23 07:48:50;;;;;;;68.57;61.88;;;;;;;7.94;83.10;97952.53;5053635;28;20105;-75
2023/02/23 07:51:16;;;;;;;71.60;64.40;;;;;;;7.84;84.21;97952.31;5036468;28;20024;-74
2023/02/23 07:53:43;;;;;;;71.53;64.07;;;;;;;7.97;83.25;97949.38;5053690;28;20025;-75
2023/02/23 07:56:09;;;;;;;70.97;63.80;;;;;;;8.07;82.76;97941.56;5050558;28;20036;-75
2023/02/23 07:58:36;;;;;;;69.40;62.08;;;;;;;7.98;83.24;97949.13;5064397;28;20023;-76
2023/02/23 08:01:02;;;;;;;67.88;60.65;;;;;;;7.94;83.59;97939.94;5042851;28;20041;-76
2023/02/23 08:03:27;;;;;;;69.18;61.95;;;;;;;8.05;82.89;97933.75;5065012;28;20032;-76
2023/02/23 08:05:53;;;;;;;70.55;63.20;;;;;;;8.01;84.04;97937.94;5040407;28;20115;-76
2023/02/23 08:08:18;;;;;;;71.18;63.55;;;;;;;8.22;83.18;97950.75;5053417;28;20460;-75
2023/02/23 08:10:43;;;;;;;73.28;65.72;;;;;;;8.24;83.13;97948.66;5050296;28;20029;-76
2023/02/23 08:13:09;;;;;;;72.50;64.90;;;;;;;8.28;83.41;97943.69;5063077;28;20548;-76
2023/02/23 08:15:34;;;;;;;70.80;63.80;;;;;;;8.46;82.88;97956.13;5063232;28;20033;-75
2023/02/23 08:18:00;;;;;;;75.00;67.35;;;;;;;8.38;82.67;97953.81;5063890;28;20033;-75
2023/02/23 08:20:26;;;;;;;70.00;62.53;;;;;;;8.45;82.70;97949.94;5070212;28;20119;-76
2023/02/23 08:22:56;;;;;;;71.85;64.30;;;;;;;8.47;83.17;97947.03;5069448;28;20020;-75
2023/02/23 08:25:26;;;;;;;74.25;66.28;;;;;;;8.59;81.71;97955.88;5053377;28;20043;-75
2023/02/23 08:27:52;;;;;;;73.28;65.57;;;;;;;8.74;82.07;97961.53;5053384;28;20537;-76
2023/02/23 08:30:19;;;;;;;69.07;61.85;;;;;;;8.76;82.10;97968.28;5053385;28;20032;-76
2023/02/23 08:32:44;;;;;;;71.28;63.67;;;;;;;8.80;82.43;97963.25;5053441;28;20039;-75
2023/02/23 08:35:10;;;;;;;70.72;63.08;;;;;;;8.92;81.57;97961.34;5050076;28;20025;-75
2023/02/23 08:37:35;;;;;;;71.78;64.03;;;;;;;8.84;81.48;97962.56;5054287;28;20388;-75
2023/02/23 08:40:01;;;;;;;73.10;65.35;;;;;;;8.54;81.89;97936.97;5053469;28;20071;-74
2023/02/23 08:42:27;;;;;;;73.88;65.90;;;;;;;8.81;82.24;97967.59;5070314;28;20040;-75
2023/02/23 08:44:52;;;;;;;70.63;63.10;;;;;;;8.95;81.31;97971.63;5070180;28;20104;-75
2023/02/23 08:47:22;;;;;;;72.25;64.53;;;;;;;8.85;81.58;97968.72;5070615;28;20048;-75
2023/02/23 08:49:49;;;;;;;72.65;64.95;;;;;;;8.87;81.29;97963.94;5054048;28;20039;-75
2023/02/23 08:52:14;;;;;;;72.68;64.25;;;;;;;8.88;81.54;97976.31;5063397;23;20567;-76
2023/02/23 08:54:40;;;;;;;71.53;64.00;;;;;;;9.06;81.64;97968.06;5077286;28;20113;-75
2023/02/23 08:57:05;;;;;;;68.55;61.15;;;;;;;9.10;80.52;97969.25;5055056;28;20029;-75
2023/02/23 08:59:30;;;;;;;71.82;63.85;;;;;;;9.09;81.11;97978.34;5053906;28;20108;-75
2023/02/23 09:01:56;;;;;;;71.03;63.65;;;;;;;9.03;81.68;97968.56;5070276;28;20028;-76
2023/02/23 09:04:21;;;;;;;71.47;62.85;;;;;;;9.07;81.14;97968.88;5033080;28;20649;-74
2023/02/23 09:06:49;;;;;;;76.32;64.07;;;;;;;8.95;81.47;97961.69;5048772;28;20037;-75
2023/02/23 09:09:15;;;;;;;70.55;62.85;;;;;;;9.19;80.87;97972.34;5020867;28;20036;-76
2023/02/23 09:11:40;;;;;;;72.32;63.30;;;;;;;9.03;81.57;97974.72;5035497;28;20033;-76
2023/02/23 09:14:07;;;;;;;72.40;63.67;;;;;;;9.11;81.35;97964.66;5058921;28;20047;-74
2023/02/23 09:16:34;;;;;;;73.25;64.07;;;;;;;9.09;81.13;97959.53;5037353;28;20032;-76
2023/02/23 09:19:00;;;;;;;71.50;63.78;;;;;;;9.15;81.13;97961.25;5053862;28;20078;-76
2023/02/23 09:21:28;;;;;;;77.13;66.57;;;;;;;9.16;80.89;97960.19;5050061;28;20036;-76
2023/02/23 09:23:54;;;;;;;71.03;61.50;;;;;;;9.23;80.30;97971.63;5052767;28;20021;-75
2023/02/23 09:26:21;;;;;;;71.88;63.88;;;;;;;9.15;80.86;97963.13;5052308;28;20503;-75
2023/02/23 09:28:46;;;;;;;70.88;63.28;;;;;;;9.11;80.43;97970.03;5034823;28;20039;-75
2023/02/23 09:31:15;;;;;;;69.40;59.95;;;;;;;9.23;81.26;97973.47;5050545;28;20045;-76
2023/02/23 09:33:40;;;;;;;69.72;61.63;;;;;;;9.29;81.24;97973.31;5035378;28;20052;-76
2023/02/23 09:36:15;;;;;;;71.78;63.90;;;;;;;9.19;81.22;97967.78;5051960;28;20492;-75
2023/02/23 09:38:41;;;;;;;73.07;63.08;;;;;;;9.30;81.46;97971.47;5052106;28;20090;-75
2023/02/23 09:41:42;;;;;;;70.68;63.05;;;;;;;9.37;80.36;97967.56;5051882;28;20033;-75
2023/02/23 09:44:25;;;;;;;67.18;59.83;;;;;;;9.25;81.28;97974.88;5051703;28;20034;-76
2023/02/23 09:47:09;;;;;;;70.18;62.50;;;;;;;9.19;81.43;97962.41;5016490;28;20033;-75
2023/02/23 09:49:38;;;;;;;74.53;64.18;;;;;;;9.36;81.34;97968.63;5040862;28;20158;-76
2023/02/23 09:52:04;;;;;;;74.28;64.70;;;;;;;9.51;80.47;97968.06;5035578;28;20044;-76
2023/02/23 09:54:32;;;;;;;69.85;62.45;;;;;;;9.57;80.58;97964.41;5019570;28;20407;-76
2023/02/23 09:57:02;;;;;;;71.25;63.67;;;;;;;9.64;80.78;97965.88;5052885;28;20032;-76
2023/02/23 09:59:28;;;;;;;68.72;60.85;;;;;;;9.75;79.54;97962.28;5052855;28;20040;-75
2023/02/23 10:02:18;;;;;;;68.65;61.05;;;;;;;9.75;80.25;97964.97;5036044;28;20032;-75
2023/02/23 10:04:47;;;;;;;66.85;59.58;;;;;;;9.65;80.63;97975.59;5052755;28;20033;-75
2023/02/23 10:07:29;;;;;;;69.63;60.28;;;;;;;9.69;80.06;97965.97;5041491;28;20050;-74
2023/02/23 10:10:31;;;;;;;68.78;61.28;;;;;;;9.79;79.94;97972.56;5059644;28;20033;-76
2023/02/23 10:13:27;;;;;;;67.95;60.65;;;;;;;10.16;79.17;97971.00;5036018;28;20052;-76
2023/02/23 10:15:56;;;;;;;71.75;59.17;;;;;;;10.10;79.47;97980.06;5036000;28;20103;-75
2023/02/23 10:18:28;;;;;;;66.00;57.38;;;;;;;9.94;80.32;97976.28;5049451;28;20029;-75
2023/02/23 10:21:19;;;;;;;69.68;61.00;;;;;;;9.80;80.82;97979.59;5052547;28;20055;-76
2023/02/23 10:23:56;;;;;;;70.10;60.90;;;;;;;9.67;80.84;97991.47;5041212;28;20533;-75
2023/02/23 10:26:24;;;;;;;80.03;68.38;;;;;;;9.71;81.72;97987.22;5034691;28;20037;-75
2023/02/23 10:28:50;;;;;;;74.85;66.47;;;;;;;9.73;81.42;97980.53;5032594;28;20028;-74
2023/02/23 10:31:19;;;;;;;76.38;68.03;;;;;;;9.69;82.02;97983.97;5030902;28;20171;-75
2023/02/23 10:33:45;;;;;;;78.57;70.03;;;;;;;9.92;82.00;97988.38;5032099;28;20053;-76
2023/02/23 10:36:20;;;;;;;87.90;77.55;;;;;;;9.84;82.55;97986.09;5048665;28;20601;-76
2023/02/23 10:38:46;;;;;;;80.80;72.13;;;;;;;9.57;82.46;97981.34;5047101;28;20037;-76
2023/02/23 10:41:11;;;;;;;83.03;74.13;;;;;;;9.43;83.24;97982.72;5054386;28;20032;-76
2023/02/23 10:43:37;;;;;;;82.55;73.72;;;;;;;9.53;83.16;97985.59;5033089;28;20060;-76
2023/02/23 10:46:03;;;;;;;82.00;73.05;;;;;;;9.56;82.90;97979.75;5032427;28;20108;-76
2023/02/23 10:48:41;;;;;;;86.35;77.35;;;;;;;9.64;84.04;97992.75;5044283;28;20044;-76
2023/02/23 10:51:17;;;;;;;85.47;76.13;;;;;;;9.88;82.74;97981.84;5036077;28;20110;-76
2023/02/23 10:53:42;;;;;;;80.82;72.18;;;;;;;9.72;82.73;97984.31;5033826;28;20132;-76
2023/02/23 10:56:09;;;;;;;81.22;72.22;;;;;;;9.74;82.36;97984.88;5065311;28;20122;-76
2023/02/23 10:58:49;;;;;;;81.70;73.07;;;;;;;9.77;82.92;97988.13;5033272;28;20132;-76
2023/02/23 11:01:30;;;;;;;84.25;73.85;;;;;;;9.74;82.46;97984.06;5051676;28;20523;-76
2023/02/23 11:03:56;;;;;;;82.90;73.80;;;;;;;9.74;83.00;97987.56;5032286;28;20052;-76
2023/02/23 11:06:34;;;;;;;84.88;75.78;;;;;;;9.86;82.07;97983.97;5043962;28;20025;-76
2023/02/23 11:09:22;;;;;;;83.40;74.40;;;;;;;9.79;82.02;97991.38;5055561;28;20392;-76
2023/02/23 11:12:01;;;;;;;92.15;82.30;;;;;;;9.35;84.05;97985.00;5050567;28;20072;-76
2023/02/23 11:14:28;;;;;;;91.75;82.60;;;;;;;9.22;84.67;97988.78;5051156;28;20516;-76
2023/02/23 11:16:58;;;;;;;91.63;81.70;;;;;;;9.25;84.70;97982.09;5033821;28;20506;-75
2023/02/23 11:19:35;;;;;;;89.95;80.65;;;;;;;9.33;85.01;97990.63;5051096;28;20087;-76
2023/02/23 11:22:02;;;;;;;87.07;78.00;;;;;;;9.22;84.63;97978.03;5046192;28;20448;-76
2023/02/23 11:24:31;;;;;;;89.80;80.47;;;;;;;9.16;85.43;97984.38;5048341;28;20084;-76
2023/02/23 11:27:05;;;;;;;87.60;78.20;;;;;;;9.23;84.75;97990.41;5034994;28;20495;-76
2023/02/23 11:29:42;;;;;;;89.47;79.97;;;;;;;9.40;84.34;97980.53;5034480;28;20029;-76
2023/02/23 11:32:22;;;;;;;96.38;86.45;;;;;;;9.53;84.52;97974.84;5054614;28;20047;-75
2023/02/23 11:35:19;;;;;;;88.38;79.18;;;;;;;9.46;84.45;97979.56;5036264;28;20032;-75
2023/02/23 11:37:46;;;;;;;85.10;76.35;;;;;;;9.50;84.86;97975.31;5049666;28;20044;-76
2023/02/23 11:40:18;;;;;;;82.70;74.13;;;;;;;9.52;83.96;97973.19;5031176;28;20036;-76
2023/02/23 11:43:06;;;;;;;85.65;76.68;;;;;;;9.65;84.35;97972.91;5047106;28;20036;-76
2023/02/23 11:45:37;;;;;;;84.35;75.85;;;;;;;9.77;83.21;97963.94;5050909;28;20745;-76
2023/02/23 11:48:05;;;;;;;83.28;74.45;;;;;;;9.64;83.88;97960.50;5035714;28;20041;-74
2023/02/23 11:50:34;;;;;;;83.80;75.05;;;;;;;9.83;82.99;97969.13;5052078;28;20025;-76
2023/02/23 11:53:12;;;;;;;84.22;75.53;;;;;;;9.86;83.39;97968.66;5014217;28;20132;-76
2023/02/23 11:55:38;;;;;;;81.57;73.22;;;;;;;10.09;82.96;97962.28;5046107;28;20075;-75
2023/02/23 11:58:22;;;;;;;76.57;68.72;;;;;;;10.03;82.92;97957.88;5038038;28;20049;-76
2023/02/23 12:00:59;;;;;;;76.18;67.97;;;;;;;10.41;80.76;97956.03;5063412;28;20061;-76
2023/02/23 12:03:26;;;;;;;73.45;65.68;;;;;;;10.40;81.57;97954.44;5053045;28;20102;-75
2023/02/23 12:05:58;;;;;;;75.35;67.18;;;;;;;10.57;81.26;97945.47;5022910;28;20395;-76
2023/02/23 12:08:38;;;;;;;73.60;66.10;;;;;;;10.55;80.61;97956.47;5062336;28;20153;-76
2023/02/23 12:11:06;;;;;;;75.15;67.40;;;;;;;10.74;80.12;97954.28;5056975;28;20131;-76
2023/02/23 12:13:35;;;;;;;73.25;65.50;;;;;;;10.68;79.99;97958.81;5058396;28;20139;-76
2023/02/23 12:16:03;;;;;;;73.82;64.57;;;;;;;10.72;80.41;97951.84;5064875;28;20036;-76
2023/02/23 12:19:07;;;;;;;69.65;61.83;;;;;;;10.60;79.59;97953.84;5061325;28;20499;-76
2023/02/23 12:21:54;;;;;;;68.55;61.15;;;;;;;10.83;80.32;97947.38;4970224;28;20034;-75
2023/02/23 12:24:38;;;;;;;72.20;64.47;;;;;;;10.54;81.12;97944.09;4989651;28;20041;-76
2023/02/23 12:27:11;;;;;;;69.43;61.92;;;;;;;10.70;80.48;97947.78;4980632;28;20106;-76
2023/02/23 12:29:58;;;;;;;70.35;62.80;;;;;;;10.58;80.98;97939.84;5050440;28;20043;-76
2023/02/23 12:32:27;;;;;;;71.95;64.15;;;;;;;10.36;81.67;97941.72;5042047;28;20032;-76
2023/02/23 12:35:00;;;;;;;68.30;61.13;;;;;;;10.52;81.35;97940.84;5048601;28;20061;-75
2023/02/23 12:38:01;;;;;;;72.10;64.78;;;;;;;10.43;81.62;97936.97;5050047;28;20527;-77
2023/02/23 12:40:29;;;;;;;67.68;60.50;;;;;;;10.36;81.99;97925.56;5006727;28;20579;-76
2023/02/23 12:43:02;;;;;;;69.65;62.10;;;;;;;10.37;81.82;97933.38;5028725;28;20036;-76
2023/02/23 12:45:55;;;;;;;66.35;59.50;;;;;;;10.35;81.50;97926.63;5042777;28;20044;-76
2023/02/23 12:48:32;;;;;;;67.50;60.75;;;;;;;10.47;81.29;97921.09;5050269;28;20128;-76
2023/02/23 12:51:00;;;;;;;67.65;61.10;;;;;;;10.37;81.34;97921.78;5032633;28;20045;-76
2023/02/23 12:53:42;;;;;;;70.53;63.13;;;;;;;10.12;82.86;97918.75;5033127;28;20506;-76
2023/02/23 12:56:36;;;;;;;73.38;65.88;;;;;;;10.06;82.51;97920.53;5036735;28;20495;-76